AirNav   Free Bose QuietComfort 20
 
 310 users online  

3VS Roy Otten Memorial Airfield
Versailles, Missouri, USA

GOING TO VERSAILLES?


FAA INFORMATION EFFECTIVE 05 DECEMBER 2019

Location

FAA Identifier: 3VS
Lat/Long: 38-25-41.8000N 092-52-31.0000W
38-25.696667N 092-52.516667W
38.4282778,-92.8752778
(estimated)
Elevation: 1027 ft. / 313 m (estimated)
Variation: 04E (1985)
From city: 2 miles W of VERSAILLES, MO
Time zone: UTC -6 (UTC -5 during Daylight Saving Time)
Zip code: 65084

Airport Operations

Airport use: Open to the public
Activation date: 03/1971
Control tower: no
ARTCC: KANSAS CITY CENTER
FSS: COLUMBIA FLIGHT SERVICE STATION
NOTAMs facility: COU (NOTAM-D service available)
Attendance: 0800-1700
Wind indicator: lighted
Segmented circle: yes
Lights: ACTVT LIRL RY 07/25 - CTAF, CLICK 3 TIMES.
Beacon: white-green (lighted land airport)
Operates sunset to sunrise.

Airport Communications

CTAF/UNICOM: 122.8

Nearby radio navigation aids

VOR radial/distance  VOR name  Freq  Var
SHYr331/26.6SUNSHINE VOR/DME108.4000E
COUr233/38.4COLUMBIA VOR/DME110.2000E

 
NDB name  Hdg/Dist  Freq  Var  ID
SEDALIA137/21.828103EDMO -.. -- ---
GOLDEN VALLEY083/38.338801EGLY --. .-.. -.--

Airport Services

Fuel available: 100LL
FUEL AVBL 24 HRS SELF-SVC.
Parking: hangars and tiedowns
Airframe service: MAJOR
Powerplant service: MAJOR
Bottled oxygen: NONE
Bulk oxygen: NONE

Runway Information

Runway 7/25

Dimensions: 2805 x 39 ft. / 855 x 12 m
WIDTH VARIANCE 39-40 FT.
Surface: asphalt, in good condition
Runway edge lights: non-standard
NSTD LIRL; THLD LGTS SPACED INCORRECTLY; THLD & EDGE LGTS PLACED 11-18 FT FM RY EDGE.
Gradient: 0.9% UP W.
RUNWAY 7  RUNWAY 25
Latitude: 38-25.627500N38-25.765167N
Longitude: 092-52.796333W092-52.235333W
Elevation: 1027.0 ft.1003.0 ft.
Traffic pattern: leftright
Markings: basic, in good conditionbasic, in good condition
Obstructions: 63 ft. trees, 631 ft. from runway, 87 ft. right of centerline, 6:1 slope to clear45 ft. trees, 800 ft. from runway, 180 ft. left and right of centerline, 13:1 slope to clear
8 FT ROAD 105-200 FT FM RWY END 40-125L;

Helipad H1

Dimensions: 50 x 50 ft. / 15 x 15 m
Surface: concrete, in good condition
Runway edge lights: PERI
Traffic pattern: leftleft
Markings: basic, in good condition

Airport Ownership and Management from official FAA records

Ownership: Publicly-owned
Owner: CITY OF VERSAILLES
104 N. FISHER ST.
VERSAILLES, MO 65084
Phone 573-378-4634
Manager: BILL FORESTER
10998 HWY 52
VERSAILLES, MO 65084
Phone (573) 836-0506
AMGR CELL: 573-836-0506

Airport Operational Statistics

Aircraft based on the field: 26
Single engine airplanes: 24
Multi engine airplanes: 1
Helicopters: 1
    
Aircraft operations: avg 22/day *
49% transient general aviation
49% local general aviation
2% military
* for 12-month period ending 31 December 2018

Additional Remarks

CROP DUSTING ACFT AND HELICOPTERS; AND ULTRALIGHT ACTIVITY ON AND INVOF ARPT.
DEER & WILDLIFE ON & INVOF ARPT.
RY 07/25 LINE OF SIGHT OBSTRUCTED BY GRADE CHANGE IN RY.
NTSD RY SAFETY AREA BYND EACH RY END; INCORRECT TERRAIN GRADES, LARGE DROP OFF AT RY 07 END, ROAD AT RY 25 END.
FOR CD CTC WHITEMAN APCH AT 660-687-3132. WHEN WHITEMAN APCH IS CLSD, CTC KANSAS CITY ARTCC AT 913-254-8508.

Instrument Procedures

There are no published instrument procedures at 3VS.

Some nearby airports with instrument procedures:

H79 - Eldon Model Airpark (15 nm E)
K15 - Grand Glaize-Osage Beach Airport (21 nm SE)
KDMO - Sedalia Regional Airport (22 nm NW)
KRAW - Warsaw Municipal Airport (23 nm W)
KAIZ - Lee C Fine Memorial Airport (25 nm SE)
 
Loc | Ops | Rwys | IFR | FBO | Links
Com | Nav | Svcs | Stats | Notes

Kansas City Aviation Department
 
Area around 3VS (Roy Otten Memorial Airfield)
 
Road maps at: MapQuest Bing Google
 
Aerial photo
WARNING: Photo may not be current or correct
Aerial photo of 3VS (Roy Otten Memorial Airfield)
Do you have a better or more recent aerial photo of Roy Otten Memorial Airfield that you would like to share? If so, please send us your photo.

 
Sectional chart

 
Airport distance calculator
Flying to Roy Otten Memorial Airfield? Find the distance to fly.

From to 3VS

Sunrise and sunset
Times for 12-Dec-2019
 Local
(UTC-6)
 Zulu
(UTC)
Morning civil twilight06:5112:51
Sunrise07:2013:20
Sunset16:5022:50
Evening civil twilight17:2023:20

Current date and time
Zulu (UTC)  12-Dec-2019 09:50:47
Local (UTC-6)  12-Dec-2019 03:50:47
 
METAR
KDMO 
22nm NW 
120853Z AUTO 19011KT 10SM CLR 04/M05 A3026 RMK AO2 SLP252 T00441050 56009
KAIZ 
25nm SE 
120856Z AUTO 16006KT 10SM CLR 03/M04 A3032 RMK AO2 SLP270 T00331039 56009
KOZS 
29nm S 
120935Z AUTO 15011G16KT 10SM CLR 04/M05 A3029 RMK AO2
KSZL 
35nm NW 
120856Z 19011KT 10SM BKN250 03/M04 A3020 RMK AO2A SLP234 T00341041 57008 $
KJEF 
36nm E 
120853Z AUTO 11007KT 10SM CLR 01/M06 A3031 RMK AO2 SLP258 T00111056 56010
KGLY 
38nm W 
120915Z AUTO 21011KT 10SM CLR 05/M04 A3026 RMK AO2
KCOU 
39nm NE 
120854Z AUTO 17010KT 10SM CLR 02/M05 A3028 RMK AO2 SLP259 T00221050 56012
KMHL 
43nm N 
120935Z AUTO 29007KT 10SM CLR 03/M03 A3024 RMK AO2 TSNO PWINO
TAF
KSZL 
35nm NW 
120300Z 1203/1309 18009KT 9999 FEW200 QNH3025INS BECMG 1205/1206 18009KT 9999 SCT200 WS020/22050KT QNH3020INS BECMG 1220/1221 22015G25KT 9999 BKN040 BKN180 QNH3005INS BECMG 1301/1302 22009KT 9999 BKN025 BKN180 QNH3002INS TX11/1219Z TN01/1207Z
KCOU 
39nm NE 
120520Z 1206/1306 15008KT P6SM BKN250 FM120700 17009KT P6SM BKN250 WS012/21045KT FM121600 19017G27KT P6SM BKN250 FM122300 19008KT P6SM SCT120
NOTAMs
Click for the latest NOTAMs
NOTAMs are issued by the DoD/FAA and will open in a separate window not controlled by AirNav.

 

 
 

FBO, Fuel Providers, and Aircraft Ground Support

  
 Business Name 
 
 Contact 
 
 Services / Description 
 
Fuel Prices
 
Comments
  
Forester Aviation 573-836-0506
no information available

If you are affiliated with Forester Aviation and would like to show here your services, contact info, web link, logo, and more, click here
100LL
SS $4.50 
 Updated 12-Jul-2019
 
   write
SS=Self service
Update Fuel Prices
 

Would you like to see your business listed on this page?

 If your business provides an interesting product or service to pilots, flight crews, aircraft, or users of the Roy Otten Memorial Airfield, you should consider listing it here.  To start the listing process, click on the button below
 
Add a business
 

Other Pages about Roy Otten Memorial Airfield

Update a link
 
Copyright © AirNav, LLC. All rights reserved. Privacy Policy  Contact